createdAt,value
2019-01-19T00:01:15.751Z,9.55
2019-01-19T00:04:59.700Z,10.72
2019-01-19T00:08:16.164Z,11.18
2019-01-19T00:12:07.345Z,8.60
2019-01-19T00:15:21.559Z,7.97
2019-01-19T00:18:56.265Z,15.05
2019-01-19T00:22:47.195Z,16.05
2019-01-19T00:26:29.034Z,18.90
2019-01-19T00:30:08.520Z,21.82
2019-01-19T00:33:56.119Z,18.00
2019-01-19T00:37:27.803Z,17.52
2019-01-19T00:41:02.264Z,10.75
2019-01-19T00:44:44.176Z,8.45
2019-01-19T00:48:14.823Z,9.93
2019-01-19T00:52:02.983Z,6.92
2019-01-19T00:55:42.701Z,10.03
2019-01-19T00:58:51.442Z,10.13
2019-01-19T01:02:33.539Z,15.45
2019-01-19T01:06:17.060Z,16.55
2019-01-19T01:10:01.681Z,19.02
2019-01-19T01:13:18.524Z,9.15
2019-01-19T01:17:09.403Z,11.38
2019-01-19T01:20:51.816Z,9.40
2019-01-19T01:24:43.181Z,8.95
2019-01-19T01:28:25.279Z,10.93
2019-01-19T01:31:46.748Z,10.10
2019-01-19T01:35:05.856Z,10.93
2019-01-19T01:38:53.064Z,10.20
2019-01-19T01:42:37.904Z,8.58
2019-01-19T01:46:17.476Z,11.95
2019-01-19T01:49:34.892Z,11.55
2019-01-19T01:53:19.444Z,12.63
2019-01-19T01:56:24.588Z,11.10
2019-01-19T01:59:39.851Z,14.10
2019-01-19T02:03:19.088Z,10.28
2019-01-19T02:07:09.421Z,10.70
2019-01-19T02:10:54.262Z,8.78
2019-01-19T02:14:40.520Z,9.00
2019-01-19T02:18:41.787Z,8.15
2019-01-19T02:22:13.725Z,13.53
2019-01-19T02:25:43.349Z,9.08
2019-01-19T02:29:18.211Z,6.80
2019-01-19T02:32:53.659Z,7.83
2019-01-19T02:36:20.922Z,6.35
2019-01-19T02:39:57.736Z,8.58
2019-01-19T02:43:13.544Z,8.50
2019-01-19T02:46:54.163Z,8.55
2019-01-19T02:50:38.483Z,7.55
2019-01-19T02:54:29.944Z,10.03
2019-01-19T02:58:14.707Z,6.20
2019-01-19T03:02:00.912Z,7.05
2019-01-19T03:05:37.391Z,6.87
2019-01-19T03:09:16.814Z,7.40
2019-01-19T03:12:38.824Z,6.67
2019-01-19T03:15:56.770Z,6.92
2019-01-19T03:20:13.163Z,10.95
2019-01-19T03:23:49.787Z,10.25
2019-01-19T03:27:45.488Z,11.57
2019-01-19T03:31:17.679Z,9.78
2019-01-19T03:34:55.805Z,8.75
2019-01-19T03:38:29.440Z,8.95
2019-01-19T03:42:01.968Z,7.08
2019-01-19T03:45:31.403Z,7.90
2019-01-19T03:49:13.282Z,9.00
2019-01-19T03:52:44.484Z,9.03
2019-01-19T03:56:33.262Z,8.13
2019-01-19T03:59:55.111Z,8.75
2019-01-19T04:03:44.673Z,10.80
2019-01-19T04:07:02.836Z,12.20
2019-01-19T04:10:24.087Z,7.22
2019-01-19T04:13:46.855Z,7.67
2019-01-19T04:17:28.396Z,8.20
2019-01-19T04:21:10.592Z,6.75
2019-01-19T04:24:29.216Z,8.78
2019-01-19T04:27:34.328Z,8.10
2019-01-19T04:30:39.580Z,7.92
2019-01-19T04:33:44.726Z,7.78
2019-01-19T04:36:50.029Z,8.78
2019-01-19T04:39:55.152Z,8.68
2019-01-19T04:43:00.285Z,7.33
2019-01-19T04:46:05.410Z,9.10
2019-01-19T04:49:10.911Z,8.58
2019-01-19T04:52:15.880Z,7.55
2019-01-19T04:55:21.037Z,7.17
2019-01-19T04:58:26.146Z,8.48
2019-01-19T05:01:31.263Z,11.97
2019-01-19T05:04:36.387Z,11.25
2019-01-19T05:07:41.498Z,11.53
2019-01-19T05:10:46.647Z,9.38
2019-01-19T05:13:51.690Z,10.65
2019-01-19T05:16:56.827Z,9.38
2019-01-19T05:20:01.869Z,8.08
2019-01-19T05:23:07.064Z,8.90
2019-01-19T05:26:12.057Z,8.35
2019-01-19T05:29:17.198Z,10.43
2019-01-19T05:32:22.494Z,9.40
2019-01-19T05:35:27.627Z,7.78
2019-01-19T05:38:32.657Z,9.13
2019-01-19T05:41:37.704Z,7.85
2019-01-19T05:44:42.805Z,7.28
2019-01-19T05:47:47.766Z,9.20
2019-01-19T05:50:53.369Z,7.90
2019-01-19T05:53:58.680Z,9.28
2019-01-19T05:57:03.831Z,9.13
2019-01-19T06:00:17.576Z,8.03
2019-01-19T06:03:22.754Z,7.12
2019-01-19T06:06:28.229Z,8.28
2019-01-19T06:09:33.289Z,8.48
2019-01-19T06:12:38.694Z,9.55
2019-01-19T06:15:43.963Z,8.75
2019-01-19T06:18:49.700Z,11.30
2019-01-19T06:21:59.895Z,14.68
2019-01-19T06:25:05.790Z,13.68
2019-01-19T06:28:10.976Z,8.63
2019-01-19T06:31:16.022Z,11.53
2019-01-19T06:34:21.061Z,14.23
2019-01-19T06:37:26.171Z,13.65
2019-01-19T06:40:31.301Z,11.28
2019-01-19T06:43:36.352Z,15.65
2019-01-19T06:46:41.338Z,10.38
2019-01-19T06:49:46.447Z,10.50
2019-01-19T06:52:51.628Z,12.73
2019-01-19T06:55:56.672Z,10.08
2019-01-19T06:59:01.657Z,12.78
2019-01-19T07:02:07.345Z,11.38
2019-01-19T07:05:13.434Z,10.38
2019-01-19T07:08:20.317Z,10.65
2019-01-19T07:11:25.544Z,10.72
2019-01-19T07:14:30.664Z,15.68
2019-01-19T07:17:35.817Z,12.00
2019-01-19T07:20:41.947Z,10.28
2019-01-19T07:23:47.007Z,11.80
2019-01-19T07:26:52.477Z,8.90
2019-01-19T07:29:57.515Z,11.68
2019-01-19T07:33:02.586Z,15.75
2019-01-19T07:36:07.767Z,11.35
2019-01-19T07:39:12.822Z,9.95
2019-01-19T07:42:18.092Z,10.00
2019-01-19T07:45:23.063Z,12.63
2019-01-19T07:48:28.547Z,10.10
2019-01-19T07:51:33.695Z,10.53
2019-01-19T07:54:38.679Z,15.18
2019-01-19T07:57:43.807Z,10.20
2019-01-19T08:00:49.022Z,11.93
2019-01-19T08:03:54.176Z,11.08
2019-01-19T08:06:59.301Z,12.55
2019-01-19T08:10:04.672Z,13.50
2019-01-19T08:13:09.710Z,14.20
2019-01-19T08:16:14.760Z,10.13
2019-01-19T08:19:19.736Z,11.38
2019-01-19T08:22:24.848Z,14.70
2019-01-19T08:25:29.960Z,9.55
2019-01-19T08:28:35.103Z,10.53
2019-01-19T08:31:40.212Z,10.80
2019-01-19T08:34:46.603Z,11.70
2019-01-19T08:37:52.475Z,10.03
2019-01-19T08:40:57.583Z,13.72
2019-01-19T08:44:04.536Z,12.20
2019-01-19T08:47:09.652Z,9.15
2019-01-19T08:50:14.835Z,9.98
2019-01-19T08:53:19.920Z,9.00
2019-01-19T08:56:25.026Z,9.18
2019-01-19T08:59:30.079Z,8.65
2019-01-19T09:02:35.066Z,9.98
2019-01-19T09:05:40.436Z,8.40
2019-01-19T09:08:45.878Z,8.90
2019-01-19T09:11:51.130Z,7.87
2019-01-19T09:14:56.393Z,9.08
2019-01-19T09:18:02.624Z,8.58
2019-01-19T09:21:08.371Z,8.25
2019-01-19T09:24:18.553Z,6.50
2019-01-19T09:27:23.665Z,9.00
2019-01-19T09:30:28.756Z,7.60
2019-01-19T09:33:33.859Z,8.18
2019-01-19T09:36:38.951Z,6.62
2019-01-19T09:39:43.995Z,6.37
2019-01-19T09:42:49.097Z,7.20
2019-01-19T09:45:54.219Z,4.92
2019-01-19T09:48:59.340Z,7.50
2019-01-19T09:52:04.451Z,6.12
2019-01-19T09:55:09.772Z,5.47
2019-01-19T09:58:14.808Z,8.43
2019-01-19T10:01:19.858Z,6.35
2019-01-19T10:04:25.086Z,8.75
2019-01-19T10:07:30.195Z,8.85
2019-01-19T10:10:35.146Z,7.25
2019-01-19T10:13:40.343Z,8.78
2019-01-19T10:16:45.445Z,8.78
2019-01-19T10:19:50.599Z,7.45
2019-01-19T10:22:55.753Z,6.28
2019-01-19T10:26:00.856Z,8.45
2019-01-19T10:29:06.038Z,6.15
2019-01-19T10:32:11.130Z,6.53
2019-01-19T10:35:16.375Z,6.10
2019-01-19T10:38:21.468Z,5.87
2019-01-19T10:41:26.516Z,7.37
2019-01-19T10:44:31.595Z,29.45
2019-01-19T10:47:36.699Z,9.18
2019-01-19T10:50:41.814Z,8.05
2019-01-19T10:53:46.847Z,12.00
2019-01-19T10:56:51.900Z,9.83
2019-01-19T10:59:56.861Z,8.18
2019-01-19T11:03:01.989Z,9.60
2019-01-19T11:06:07.100Z,12.95
2019-01-19T11:09:12.227Z,6.28
2019-01-19T11:12:17.331Z,6.92
2019-01-19T11:15:22.498Z,7.78
2019-01-19T11:18:27.535Z,9.43
2019-01-19T11:21:32.663Z,5.90
2019-01-19T11:24:37.747Z,19.48
2019-01-19T11:27:42.863Z,6.60
2019-01-19T11:30:47.983Z,8.13
2019-01-19T11:33:53.193Z,6.50
2019-01-19T11:36:59.085Z,10.10
2019-01-19T11:40:04.780Z,5.17
2019-01-19T11:43:10.948Z,6.63
2019-01-19T11:46:16.055Z,6.80
2019-01-19T11:49:21.104Z,5.57
2019-01-19T11:52:26.139Z,5.73
2019-01-19T11:55:31.258Z,7.13
2019-01-19T11:58:36.315Z,6.17
2019-01-19T12:01:41.348Z,6.23
2019-01-19T12:04:46.547Z,6.90
2019-01-19T12:07:51.787Z,5.20
2019-01-19T12:10:56.981Z,10.63
2019-01-19T12:14:02.104Z,7.43
2019-01-19T12:17:07.273Z,5.80
2019-01-19T12:20:18.683Z,6.90
2019-01-19T12:23:23.733Z,8.67
2019-01-19T12:26:28.838Z,7.87
2019-01-19T12:29:33.901Z,8.10
2019-01-19T12:32:39.103Z,9.50
2019-01-19T12:35:44.215Z,5.80
2019-01-19T12:38:49.340Z,6.70
2019-01-19T12:41:54.530Z,6.20
2019-01-19T12:44:59.672Z,4.10
2019-01-19T12:48:04.974Z,8.23
2019-01-19T12:51:11.751Z,8.17
2019-01-19T12:54:16.871Z,5.07
2019-01-19T12:57:21.971Z,4.43
2019-01-19T13:00:27.263Z,8.83
2019-01-19T13:03:32.375Z,9.17
2019-01-19T13:07:09.928Z,4.20
2019-01-19T13:10:27.199Z,7.27
2019-01-19T13:13:43.507Z,8.03
2019-01-19T13:17:05.643Z,7.87
2019-01-19T13:20:24.131Z,5.30
2019-01-19T13:24:02.647Z,7.93
2019-01-19T13:27:24.899Z,9.73
2019-01-19T13:31:11.285Z,5.00
2019-01-19T13:34:55.978Z,6.07
2019-01-19T13:38:32.280Z,9.83
2019-01-19T13:42:09.527Z,10.40
2019-01-19T13:45:56.095Z,2.33
2019-01-19T13:49:40.887Z,4.13
2019-01-19T13:53:09.690Z,4.43
2019-01-19T13:56:42.931Z,3.80
2019-01-19T14:00:01.969Z,5.60
2019-01-19T14:03:17.168Z,9.60
2019-01-19T14:07:27.432Z,3.13
2019-01-19T14:10:40.607Z,5.50
2019-01-19T14:14:35.853Z,5.87
2019-01-19T14:18:07.310Z,5.23
2019-01-19T14:21:23.748Z,5.13
2019-01-19T14:25:21.755Z,5.33
2019-01-19T14:29:05.651Z,4.23
2019-01-19T14:32:31.218Z,6.83
2019-01-19T14:36:09.792Z,8.03
2019-01-19T14:40:01.276Z,35.23
2019-01-19T14:43:43.859Z,6.50
2019-01-19T14:47:27.331Z,4.23
2019-01-19T14:51:10.478Z,7.80
2019-01-19T14:54:51.490Z,5.60
2019-01-19T14:58:47.012Z,10.17
2019-01-19T15:02:42.460Z,8.83
2019-01-19T15:06:24.167Z,12.13
2019-01-19T15:10:03.850Z,16.00
2019-01-19T15:13:46.162Z,12.27
2019-01-19T15:17:13.984Z,9.90
2019-01-19T15:20:32.298Z,12.60
2019-01-19T15:24:14.155Z,9.37
2019-01-19T15:27:48.823Z,7.60
2019-01-19T15:31:43.560Z,10.60
2019-01-19T15:35:14.691Z,7.73
2019-01-19T15:39:11.035Z,7.43
2019-01-19T15:43:01.023Z,10.70
2019-01-19T15:46:43.675Z,10.93
2019-01-19T15:50:28.031Z,12.33
2019-01-19T15:53:52.889Z,11.87
2019-01-19T15:57:35.503Z,9.13
2019-01-19T16:01:26.186Z,8.57
2019-01-19T16:05:08.238Z,11.97
2019-01-19T16:08:50.599Z,10.07
2019-01-19T16:12:17.511Z,8.93
2019-01-19T16:16:05.358Z,14.80
2019-01-19T16:19:44.451Z,9.23
2019-01-19T16:23:36.556Z,13.88
2019-01-19T16:27:05.653Z,25.20
2019-01-19T16:31:15.921Z,33.75
2019-01-19T16:34:48.345Z,23.50
2019-01-19T16:38:52.696Z,13.87
2019-01-19T16:42:36.875Z,13.47
2019-01-19T16:46:11.003Z,13.20
2019-01-19T16:49:43.959Z,14.93
2019-01-19T16:53:27.550Z,14.85
2019-01-19T16:57:18.055Z,16.45
2019-01-19T17:01:14.052Z,16.95
2019-01-19T17:04:44.084Z,19.10
2019-01-19T17:08:15.736Z,15.18
2019-01-19T17:11:39.066Z,12.35
2019-01-19T17:15:05.000Z,11.12
2019-01-19T17:18:35.795Z,19.27
2019-01-19T17:22:32.810Z,16.20
2019-01-19T17:26:03.270Z,15.40
2019-01-19T17:30:01.070Z,13.90
2019-01-19T17:33:30.435Z,11.30
2019-01-19T17:36:50.476Z,13.93
2019-01-19T17:40:32.485Z,12.25
2019-01-19T17:44:23.671Z,33.25
2019-01-19T17:47:57.757Z,18.05
2019-01-19T17:51:29.120Z,23.90
2019-01-19T17:55:23.084Z,20.20
2019-01-19T17:59:12.920Z,16.48
2019-01-19T18:03:01.432Z,15.28
2019-01-19T18:06:50.955Z,29.30
2019-01-19T18:10:43.306Z,15.55
2019-01-19T18:14:11.254Z,25.15
2019-01-19T18:17:57.675Z,40.55
2019-01-19T18:21:50.143Z,21.33
2019-01-19T18:25:25.178Z,20.80
2019-01-19T18:29:11.863Z,19.70
2019-01-19T18:32:49.659Z,17.75
2019-01-19T18:36:29.965Z,14.43
2019-01-19T18:40:03.551Z,16.25
2019-01-19T18:43:23.937Z,15.35
2019-01-19T18:46:53.171Z,18.45
2019-01-19T18:50:40.995Z,17.92
2019-01-19T18:54:11.911Z,19.45
2019-01-19T18:57:41.777Z,27.95
2019-01-19T19:01:26.100Z,16.05
2019-01-19T19:05:18.206Z,17.57
2019-01-19T19:09:05.151Z,16.55
2019-01-19T19:12:38.395Z,19.57
2019-01-19T19:16:13.915Z,17.17
2019-01-19T19:19:44.976Z,18.42
2019-01-19T19:23:05.871Z,16.67
2019-01-19T19:27:19.320Z,20.32
2019-01-19T19:31:11.665Z,18.55
2019-01-19T19:34:49.919Z,16.77
2019-01-19T19:38:38.063Z,21.00
2019-01-19T19:42:24.041Z,23.98
2019-01-19T19:45:48.171Z,19.32
2019-01-19T19:49:34.159Z,23.18
2019-01-19T19:52:39.240Z,18.00
2019-01-19T19:55:42.879Z,18.30
2019-01-19T19:58:48.043Z,20.80
2019-01-19T20:01:53.335Z,19.17
2019-01-19T20:04:58.470Z,19.35
2019-01-19T20:08:03.572Z,17.73
2019-01-19T20:11:08.682Z,20.27
2019-01-19T20:14:13.809Z,24.60
2019-01-19T20:17:19.072Z,29.07
2019-01-19T20:20:24.183Z,23.50
2019-01-19T20:23:29.235Z,26.73
2019-01-19T20:26:34.399Z,21.68
2019-01-19T20:29:39.450Z,19.02
2019-01-19T20:32:44.665Z,21.68
2019-01-19T20:35:49.715Z,18.10
2019-01-19T20:38:54.746Z,18.82
2019-01-19T20:41:59.811Z,20.17
2019-01-19T20:45:06.692Z,18.00
2019-01-19T20:48:11.908Z,21.73
2019-01-19T20:51:17.026Z,17.90
2019-01-19T20:54:22.152Z,18.35
2019-01-19T20:57:27.190Z,20.43
2019-01-19T21:00:32.375Z,16.95
2019-01-19T21:03:37.472Z,19.32
2019-01-19T21:06:42.524Z,17.07
2019-01-19T21:09:47.740Z,23.57
2019-01-19T21:12:52.860Z,20.35
2019-01-19T21:15:57.899Z,19.23
2019-01-19T21:19:03.220Z,22.07
2019-01-19T21:22:08.443Z,22.98
2019-01-19T21:25:13.623Z,22.45
2019-01-19T21:28:18.683Z,21.65
2019-01-19T21:31:23.736Z,22.55
2019-01-19T21:34:28.850Z,22.00
2019-01-19T21:37:33.893Z,18.70
2019-01-19T21:40:39.366Z,20.15
2019-01-19T21:43:44.417Z,18.75
2019-01-19T21:46:49.462Z,19.17
2019-01-19T21:49:54.575Z,17.45
2019-01-19T21:52:59.560Z,19.45
2019-01-19T21:56:04.663Z,18.80
2019-01-19T21:59:09.795Z,17.90
2019-01-19T22:02:14.747Z,23.62
2019-01-19T22:05:21.069Z,18.27
2019-01-19T22:08:26.107Z,17.40
2019-01-19T22:11:31.215Z,18.52
2019-01-19T22:14:36.336Z,20.65
2019-01-19T22:17:41.468Z,18.62
2019-01-19T22:20:46.700Z,20.25
2019-01-19T22:23:51.982Z,19.35
2019-01-19T22:26:57.718Z,24.67
2019-01-19T22:30:03.084Z,23.25
2019-01-19T22:33:09.548Z,20.57
2019-01-19T22:36:14.719Z,24.98
2019-01-19T22:39:19.830Z,29.25
2019-01-19T22:42:25.978Z,17.82
2019-01-19T22:45:31.235Z,21.00
2019-01-19T22:48:36.285Z,20.72
2019-01-19T22:51:41.851Z,18.80
2019-01-19T22:54:47.252Z,26.30
2019-01-19T22:57:52.746Z,23.60
2019-01-19T23:01:30.607Z,21.50
2019-01-19T23:04:36.403Z,21.65
2019-01-19T23:07:41.360Z,22.00
2019-01-19T23:10:46.723Z,21.65
2019-01-19T23:13:52.198Z,18.30
2019-01-19T23:16:57.596Z,21.35
2019-01-19T23:20:02.643Z,20.90
2019-01-19T23:23:07.757Z,19.30
2019-01-19T23:26:13.115Z,20.80
2019-01-19T23:29:18.624Z,20.37
2019-01-19T23:32:23.905Z,21.60
2019-01-19T23:35:29.363Z,19.17
2019-01-19T23:38:34.659Z,22.27
2019-01-19T23:41:39.776Z,21.17
2019-01-19T23:44:45.095Z,20.95
2019-01-19T23:47:50.109Z,18.00
2019-01-19T23:50:55.372Z,24.77
2019-01-19T23:54:00.624Z,19.80
2019-01-19T23:57:05.735Z,20.23
